Date,TemperatureHighF,TemperatureAvgF,TemperatureLowF,DewpointHighF,DewpointAvgF,DewpointLowF,HumidityHigh,HumidityAvg,HumidityLow,PressureMaxIn,PressureMinIn,WindSpeedMaxMPH,WindSpeedAvgMPH,GustSpeedMaxMPH,PrecipitationSumIn
2013-12-1,40.1,30.0,22.1,26.0,21.1,16.6,92,71,46,30.38,30.25,8,2,15,0.00
2013-12-2,47.0,31.2,18.5,25.6,19.6,16.1,93,66,32,30.26,29.89,11,2,22,0.00
2013-12-3,48.0,35.6,21.2,24.4,18.4,13.1,91,55,27,29.91,29.64,9,2,20,0.02
2013-12-4,41.5,35.1,24.0,25.3,20.5,15.5,88,58,37,29.74,29.42,9,4,20,0.00
2013-12-5,25.7,21.5,10.4,21.5,17.3,7.3,90,84,65,30.01,29.72,4,0,8,0.00
2013-12-6,23.1,14.5,5.1,12.0,7.4,1.7,89,75,45,30.39,30.00,11,2,13,0.00
2013-12-7,29.3,18.1,3.2,20.2,10.9,-1.6,87,74,57,30.39,29.97,8,3,17,0.01
2013-12-8,23.4,16.7,10.0,19.3,8.8,-3.1,89,72,40,30.15,29.77,12,5,27,0.00
2013-12-9,15.4,9.0,-7.5,10.5,1.9,-12.0,87,74,43,30.76,30.15,11,2,19,0.00
2013-12-10,32.0,9.5,-12.0,12.8,-1.4,-16.7,87,66,27,30.87,30.69,7,1,13,0.02
2013-12-11,35.1,17.9,6.5,13.1,7.2,1.6,87,67,31,30.80,30.66,6,1,9,0.05
2013-12-12,43.7,22.6,7.0,18.3,9.7,-0.1,81,62,16,30.80,30.30,4,0,5,0.08
2013-12-13,34.6,26.6,18.2,26.4,21.0,14.5,91,80,60,30.30,29.95,8,2,13,0.01
2013-12-14,34.6,22.6,9.1,16.7,11.6,5.8,86,65,38,30.62,30.17,6,1,8,0.01
2013-12-15,40.2,20.8,7.7,19.0,12.4,4.4,90,73,37,30.64,30.54,6,1,10,0.01
2013-12-16,48.0,25.1,12.8,22.2,15.3,9.4,89,71,26,30.61,30.48,7,0,9,0.01
2013-12-17,51.3,29.2,17.3,22.1,14.0,6.0,77,57,16,30.61,30.44,6,1,12,0.00
2013-12-18,49.2,28.0,12.4,21.0,11.7,2.5,85,58,15,30.44,30.05,8,2,15,0.00
2013-12-19,42.9,29.2,19.9,21.9,18.3,14.1,84,66,41,30.05,29.74,8,2,14,0.00
2013-12-20,38.9,27.8,19.0,20.2,17.4,14.8,87,67,39,29.86,29.70,8,1,13,0.00
2013-12-21,28.8,23.6,18.0,21.6,18.8,14.7,90,82,68,29.90,29.57,8,2,12,0.00
2013-12-22,27.7,22.1,14.6,19.9,15.1,9.6,91,75,54,30.40,29.90,7,2,10,0.05
2013-12-23,34.0,17.7,4.8,16.6,7.3,1.3,87,68,32,30.68,30.40,7,1,13,0.00
2013-12-24,40.2,24.0,10.3,23.1,15.5,6.9,88,72,47,30.66,30.36,10,2,14,0.00
2013-12-25,37.1,18.9,8.2,16.0,6.3,-4.9,88,64,17,30.67,30.43,4,0,7,0.00
2013-12-26,41.1,22.7,8.6,16.1,7.7,2.3,77,56,21,30.68,30.50,7,1,11,0.00
2013-12-27,43.3,25.5,15.6,18.4,11.3,6.6,71,57,26,30.60,30.39,8,3,10,0.00
2013-12-28,41.8,24.2,8.4,18.5,12.7,4.6,88,65,32,30.39,30.07,7,1,13,0.00
2013-12-29,28.8,24.1,15.8,23.1,18.8,13.1,89,80,70,30.29,30.10,6,1,7,0.01
2013-12-30,39.3,21.2,11.4,21.0,14.0,8.5,91,76,42,30.55,30.28,4,0,8,0.03
2013-12-31,39.0,24.9,9.0,19.4,14.0,5.9,90,66,42,30.54,30.30,12,2,19,0.00